sensor_id;sensor_type;location;lat;lon;timestamp;P1;durP1;ratioP1;P2;durP2;ratioP2
72920;SDS011;61064;51.654;5.476;2023-06-10T00:02:28;9.63;;;5.50;;
72920;SDS011;61064;51.654;5.476;2023-06-10T00:04:53;8.13;;;4.80;;
72920;SDS011;61064;51.654;5.476;2023-06-10T00:07:19;9.75;;;5.28;;
72920;SDS011;61064;51.654;5.476;2023-06-10T00:09:44;10.83;;;5.70;;
72920;SDS011;61064;51.654;5.476;2023-06-10T00:12:10;8.90;;;5.17;;
72920;SDS011;61064;51.654;5.476;2023-06-10T00:14:38;10.97;;;5.50;;
72920;SDS011;61064;51.654;5.476;2023-06-10T00:17:05;9.95;;;5.20;;
72920;SDS011;61064;51.654;5.476;2023-06-10T00:19:33;9.75;;;5.30;;
72920;SDS011;61064;51.654;5.476;2023-06-10T00:22:00;10.27;;;5.55;;
72920;SDS011;61064;51.654;5.476;2023-06-10T00:24:26;10.50;;;5.70;;
72920;SDS011;61064;51.654;5.476;2023-06-10T00:26:51;8.50;;;5.53;;
72920;SDS011;61064;51.654;5.476;2023-06-10T00:29:16;10.68;;;5.60;;
72920;SDS011;61064;51.654;5.476;2023-06-10T00:31:42;10.67;;;5.57;;
72920;SDS011;61064;51.654;5.476;2023-06-10T00:34:08;9.75;;;5.50;;
72920;SDS011;61064;51.654;5.476;2023-06-10T00:36:33;9.40;;;5.90;;
72920;SDS011;61064;51.654;5.476;2023-06-10T00:39:00;9.15;;;5.70;;
72920;SDS011;61064;51.654;5.476;2023-06-10T00:41:26;9.83;;;5.53;;
72920;SDS011;61064;51.654;5.476;2023-06-10T00:43:51;10.60;;;5.80;;
72920;SDS011;61064;51.654;5.476;2023-06-10T00:46:17;11.40;;;5.17;;
72920;SDS011;61064;51.654;5.476;2023-06-10T00:48:44;12.02;;;5.60;;
72920;SDS011;61064;51.654;5.476;2023-06-10T00:51:10;12.60;;;5.72;;
72920;SDS011;61064;51.654;5.476;2023-06-10T00:53:37;9.25;;;5.20;;
72920;SDS011;61064;51.654;5.476;2023-06-10T00:56:06;9.45;;;5.57;;
72920;SDS011;61064;51.654;5.476;2023-06-10T00:58:32;10.23;;;6.00;;
72920;SDS011;61064;51.654;5.476;2023-06-10T01:00:58;12.82;;;5.90;;
72920;SDS011;61064;51.654;5.476;2023-06-10T01:03:23;9.80;;;5.80;;
72920;SDS011;61064;51.654;5.476;2023-06-10T01:05:51;9.95;;;5.85;;
72920;SDS011;61064;51.654;5.476;2023-06-10T01:08:28;10.37;;;6.00;;
72920;SDS011;61064;51.654;5.476;2023-06-10T01:11:00;9.50;;;5.70;;
72920;SDS011;61064;51.654;5.476;2023-06-10T01:13:29;11.25;;;5.72;;
72920;SDS011;61064;51.654;5.476;2023-06-10T01:15:57;10.25;;;6.07;;
72920;SDS011;61064;51.654;5.476;2023-06-10T01:18:23;11.35;;;6.07;;
72920;SDS011;61064;51.654;5.476;2023-06-10T01:20:48;11.13;;;5.80;;
72920;SDS011;61064;51.654;5.476;2023-06-10T01:23:14;10.15;;;6.03;;
72920;SDS011;61064;51.654;5.476;2023-06-10T01:25:41;10.10;;;6.17;;
72920;SDS011;61064;51.654;5.476;2023-06-10T01:28:14;10.75;;;6.00;;
72920;SDS011;61064;51.654;5.476;2023-06-10T01:33:43;12.60;;;6.00;;
72920;SDS011;61064;51.654;5.476;2023-06-10T01:36:12;13.05;;;6.65;;
72920;SDS011;61064;51.654;5.476;2023-06-10T01:38:41;9.97;;;6.50;;
72920;SDS011;61064;51.654;5.476;2023-06-10T01:41:09;12.27;;;6.75;;
72920;SDS011;61064;51.654;5.476;2023-06-10T01:43:37;10.13;;;6.60;;
72920;SDS011;61064;51.654;5.476;2023-06-10T01:46:03;12.35;;;6.72;;
72920;SDS011;61064;51.654;5.476;2023-06-10T01:48:29;12.63;;;7.50;;
72920;SDS011;61064;51.654;5.476;2023-06-10T01:50:54;10.73;;;6.67;;
72920;SDS011;61064;51.654;5.476;2023-06-10T01:53:21;9.93;;;6.82;;
72920;SDS011;61064;51.654;5.476;2023-06-10T01:55:47;11.63;;;6.80;;
72920;SDS011;61064;51.654;5.476;2023-06-10T01:58:13;14.40;;;6.80;;
72920;SDS011;61064;51.654;5.476;2023-06-10T02:00:38;11.57;;;7.23;;
72920;SDS011;61064;51.654;5.476;2023-06-10T02:03:03;10.50;;;6.97;;
72920;SDS011;61064;51.654;5.476;2023-06-10T02:05:29;11.50;;;7.03;;
72920;SDS011;61064;51.654;5.476;2023-06-10T02:07:54;11.50;;;7.13;;
72920;SDS011;61064;51.654;5.476;2023-06-10T02:10:19;11.10;;;7.10;;
72920;SDS011;61064;51.654;5.476;2023-06-10T02:12:45;10.57;;;7.17;;
72920;SDS011;61064;51.654;5.476;2023-06-10T02:15:10;10.63;;;6.80;;
72920;SDS011;61064;51.654;5.476;2023-06-10T02:17:36;11.60;;;7.20;;
72920;SDS011;61064;51.654;5.476;2023-06-10T02:20:01;11.53;;;7.20;;
72920;SDS011;61064;51.654;5.476;2023-06-10T02:22:31;13.40;;;7.30;;
72920;SDS011;61064;51.654;5.476;2023-06-10T02:24:57;11.02;;;7.20;;
72920;SDS011;61064;51.654;5.476;2023-06-10T02:27:22;12.27;;;7.33;;
72920;SDS011;61064;51.654;5.476;2023-06-10T02:29:48;10.40;;;7.10;;
72920;SDS011;61064;51.654;5.476;2023-06-10T02:32:13;10.87;;;7.00;;
72920;SDS011;61064;51.654;5.476;2023-06-10T02:34:38;13.13;;;7.60;;
72920;SDS011;61064;51.654;5.476;2023-06-10T02:37:04;14.13;;;7.80;;
72920;SDS011;61064;51.654;5.476;2023-06-10T02:39:29;14.47;;;7.40;;
72920;SDS011;61064;51.654;5.476;2023-06-10T02:41:55;11.30;;;7.40;;
72920;SDS011;61064;51.654;5.476;2023-06-10T02:44:20;12.13;;;7.47;;
72920;SDS011;61064;51.654;5.476;2023-06-10T02:46:51;13.60;;;7.97;;
72920;SDS011;61064;51.654;5.476;2023-06-10T02:49:17;11.82;;;7.65;;
72920;SDS011;61064;51.654;5.476;2023-06-10T02:51:42;13.60;;;7.87;;
72920;SDS011;61064;51.654;5.476;2023-06-10T02:54:07;13.30;;;7.30;;
72920;SDS011;61064;51.654;5.476;2023-06-10T02:56:33;14.63;;;7.70;;
72920;SDS011;61064;51.654;5.476;2023-06-10T02:58:59;10.93;;;7.47;;
72920;SDS011;61064;51.654;5.476;2023-06-10T03:01:24;11.67;;;7.40;;
72920;SDS011;61064;51.654;5.476;2023-06-10T03:03:49;13.27;;;8.40;;
72920;SDS011;61064;51.654;5.476;2023-06-10T03:06:15;15.15;;;7.90;;
72920;SDS011;61064;51.654;5.476;2023-06-10T03:08:41;12.90;;;8.00;;
72920;SDS011;61064;51.654;5.476;2023-06-10T03:11:06;14.17;;;8.20;;
72920;SDS011;61064;51.654;5.476;2023-06-10T03:13:32;13.35;;;8.23;;
72920;SDS011;61064;51.654;5.476;2023-06-10T03:15:57;13.80;;;8.43;;
72920;SDS011;61064;51.654;5.476;2023-06-10T03:18:27;12.75;;;8.25;;
72920;SDS011;61064;51.654;5.476;2023-06-10T03:20:52;12.13;;;8.00;;
72920;SDS011;61064;51.654;5.476;2023-06-10T03:23:18;14.20;;;8.07;;
72920;SDS011;61064;51.654;5.476;2023-06-10T03:25:44;13.85;;;8.70;;
72920;SDS011;61064;51.654;5.476;2023-06-10T03:28:10;13.40;;;8.10;;
72920;SDS011;61064;51.654;5.476;2023-06-10T03:30:36;14.25;;;8.60;;
72920;SDS011;61064;51.654;5.476;2023-06-10T03:33:01;15.00;;;8.40;;
72920;SDS011;61064;51.654;5.476;2023-06-10T03:35:27;11.40;;;7.50;;
72920;SDS011;61064;51.654;5.476;2023-06-10T03:37:52;13.70;;;8.83;;
72920;SDS011;61064;51.654;5.476;2023-06-10T03:40:17;14.73;;;8.50;;
72920;SDS011;61064;51.654;5.476;2023-06-10T03:42:43;13.73;;;8.50;;
72920;SDS011;61064;51.654;5.476;2023-06-10T03:45:11;15.05;;;8.85;;
72920;SDS011;61064;51.654;5.476;2023-06-10T03:47:37;15.77;;;8.40;;
72920;SDS011;61064;51.654;5.476;2023-06-10T03:50:03;16.50;;;8.77;;
72920;SDS011;61064;51.654;5.476;2023-06-10T03:52:30;15.27;;;8.40;;
72920;SDS011;61064;51.654;5.476;2023-06-10T03:54:55;15.18;;;8.73;;
72920;SDS011;61064;51.654;5.476;2023-06-10T03:57:21;15.77;;;8.50;;
72920;SDS011;61064;51.654;5.476;2023-06-10T03:59:46;13.63;;;8.27;;
72920;SDS011;61064;51.654;5.476;2023-06-10T04:02:12;12.93;;;8.60;;
72920;SDS011;61064;51.654;5.476;2023-06-10T04:04:37;14.27;;;8.47;;
72920;SDS011;61064;51.654;5.476;2023-06-10T04:07:06;12.80;;;8.63;;
72920;SDS011;61064;51.654;5.476;2023-06-10T04:09:31;12.73;;;8.20;;
72920;SDS011;61064;51.654;5.476;2023-06-10T04:11:57;16.88;;;7.90;;
72920;SDS011;61064;51.654;5.476;2023-06-10T04:14:22;12.97;;;8.07;;
72920;SDS011;61064;51.654;5.476;2023-06-10T04:16:49;15.33;;;8.30;;
72920;SDS011;61064;51.654;5.476;2023-06-10T04:19:15;14.30;;;7.93;;
72920;SDS011;61064;51.654;5.476;2023-06-10T04:21:41;14.98;;;7.43;;
72920;SDS011;61064;51.654;5.476;2023-06-10T04:24:07;16.13;;;8.00;;
72920;SDS011;61064;51.654;5.476;2023-06-10T04:26:32;16.27;;;7.67;;
72920;SDS011;61064;51.654;5.476;2023-06-10T04:28:58;12.25;;;7.47;;
72920;SDS011;61064;51.654;5.476;2023-06-10T04:31:24;13.33;;;7.33;;
72920;SDS011;61064;51.654;5.476;2023-06-10T04:33:49;11.70;;;7.77;;
72920;SDS011;61064;51.654;5.476;2023-06-10T04:36:14;11.67;;;7.00;;
72920;SDS011;61064;51.654;5.476;2023-06-10T04:38:40;13.05;;;7.15;;
72920;SDS011;61064;51.654;5.476;2023-06-10T04:41:06;12.40;;;7.17;;
72920;SDS011;61064;51.654;5.476;2023-06-10T04:43:31;11.47;;;6.77;;
72920;SDS011;61064;51.654;5.476;2023-06-10T04:45:57;14.77;;;7.00;;
72920;SDS011;61064;51.654;5.476;2023-06-10T04:48:22;13.70;;;6.70;;
72920;SDS011;61064;51.654;5.476;2023-06-10T04:50:49;13.18;;;6.72;;
72920;SDS011;61064;51.654;5.476;2023-06-10T04:53:15;12.73;;;7.05;;
72920;SDS011;61064;51.654;5.476;2023-06-10T04:55:40;10.97;;;6.20;;
72920;SDS011;61064;51.654;5.476;2023-06-10T04:58:08;12.50;;;6.00;;
72920;SDS011;61064;51.654;5.476;2023-06-10T05:00:33;12.07;;;6.40;;
72920;SDS011;61064;51.654;5.476;2023-06-10T05:02:58;11.23;;;6.10;;
72920;SDS011;61064;51.654;5.476;2023-06-10T05:05:24;11.70;;;6.20;;
72920;SDS011;61064;51.654;5.476;2023-06-10T05:07:49;13.03;;;5.93;;
72920;SDS011;61064;51.654;5.476;2023-06-10T05:10:14;12.03;;;6.03;;
72920;SDS011;61064;51.654;5.476;2023-06-10T05:12:40;10.73;;;6.10;;
72920;SDS011;61064;51.654;5.476;2023-06-10T05:15:06;11.75;;;6.18;;
72920;SDS011;61064;51.654;5.476;2023-06-10T05:17:33;13.75;;;6.15;;
72920;SDS011;61064;51.654;5.476;2023-06-10T05:20:00;12.33;;;5.90;;
72920;SDS011;61064;51.654;5.476;2023-06-10T05:22:26;11.05;;;6.22;;
72920;SDS011;61064;51.654;5.476;2023-06-10T05:24:52;10.70;;;6.32;;
72920;SDS011;61064;51.654;5.476;2023-06-10T05:27:18;12.10;;;6.18;;
72920;SDS011;61064;51.654;5.476;2023-06-10T05:29:43;11.60;;;6.10;;
72920;SDS011;61064;51.654;5.476;2023-06-10T05:32:10;11.63;;;6.07;;
72920;SDS011;61064;51.654;5.476;2023-06-10T05:34:36;15.07;;;6.17;;
72920;SDS011;61064;51.654;5.476;2023-06-10T05:37:02;11.57;;;6.45;;
72920;SDS011;61064;51.654;5.476;2023-06-10T05:39:27;11.33;;;5.97;;
72920;SDS011;61064;51.654;5.476;2023-06-10T05:41:53;11.73;;;6.30;;
72920;SDS011;61064;51.654;5.476;2023-06-10T05:44:18;14.40;;;6.30;;
72920;SDS011;61064;51.654;5.476;2023-06-10T05:46:43;13.00;;;6.33;;
72920;SDS011;61064;51.654;5.476;2023-06-10T05:49:09;11.35;;;6.13;;
72920;SDS011;61064;51.654;5.476;2023-06-10T05:51:34;12.53;;;6.00;;
72920;SDS011;61064;51.654;5.476;2023-06-10T05:53:59;15.23;;;6.30;;
72920;SDS011;61064;51.654;5.476;2023-06-10T05:56:25;12.57;;;5.93;;
72920;SDS011;61064;51.654;5.476;2023-06-10T05:58:50;13.38;;;5.95;;
72920;SDS011;61064;51.654;5.476;2023-06-10T06:01:16;11.37;;;5.73;;
72920;SDS011;61064;51.654;5.476;2023-06-10T06:03:41;13.97;;;6.40;;
72920;SDS011;61064;51.654;5.476;2023-06-10T06:06:07;13.48;;;5.60;;
72920;SDS011;61064;51.654;5.476;2023-06-10T06:08:32;12.20;;;5.77;;
72920;SDS011;61064;51.654;5.476;2023-06-10T06:10:58;11.50;;;5.70;;
72920;SDS011;61064;51.654;5.476;2023-06-10T06:13:23;14.30;;;5.57;;
72920;SDS011;61064;51.654;5.476;2023-06-10T06:15:49;11.83;;;5.17;;
72920;SDS011;61064;51.654;5.476;2023-06-10T06:18:15;11.93;;;6.07;;
72920;SDS011;61064;51.654;5.476;2023-06-10T06:20:40;12.03;;;5.83;;
72920;SDS011;61064;51.654;5.476;2023-06-10T06:23:06;11.50;;;5.27;;
72920;SDS011;61064;51.654;5.476;2023-06-10T06:25:33;11.85;;;5.40;;
72920;SDS011;61064;51.654;5.476;2023-06-10T06:28:00;11.45;;;5.72;;
72920;SDS011;61064;51.654;5.476;2023-06-10T06:30:26;10.73;;;5.20;;
72920;SDS011;61064;51.654;5.476;2023-06-10T06:32:51;10.57;;;5.33;;
72920;SDS011;61064;51.654;5.476;2023-06-10T06:35:16;11.18;;;5.45;;
72920;SDS011;61064;51.654;5.476;2023-06-10T06:37:42;13.17;;;5.70;;
72920;SDS011;61064;51.654;5.476;2023-06-10T06:40:07;12.07;;;5.60;;
72920;SDS011;61064;51.654;5.476;2023-06-10T06:42:33;14.82;;;5.60;;
72920;SDS011;61064;51.654;5.476;2023-06-10T06:44:58;14.70;;;5.50;;
72920;SDS011;61064;51.654;5.476;2023-06-10T06:47:24;12.30;;;5.17;;
72920;SDS011;61064;51.654;5.476;2023-06-10T06:49:49;10.73;;;5.60;;
72920;SDS011;61064;51.654;5.476;2023-06-10T06:52:15;10.53;;;5.30;;
72920;SDS011;61064;51.654;5.476;2023-06-10T06:54:40;11.47;;;5.10;;
72920;SDS011;61064;51.654;5.476;2023-06-10T06:57:06;10.45;;;4.93;;
72920;SDS011;61064;51.654;5.476;2023-06-10T06:59:32;11.20;;;5.27;;
72920;SDS011;61064;51.654;5.476;2023-06-10T07:01:57;10.65;;;5.47;;
72920;SDS011;61064;51.654;5.476;2023-06-10T07:04:23;10.53;;;4.90;;
72920;SDS011;61064;51.654;5.476;2023-06-10T07:06:48;9.50;;;5.17;;
72920;SDS011;61064;51.654;5.476;2023-06-10T07:09:14;10.00;;;4.77;;
72920;SDS011;61064;51.654;5.476;2023-06-10T07:11:39;10.57;;;5.10;;
72920;SDS011;61064;51.654;5.476;2023-06-10T07:14:04;13.47;;;5.43;;
72920;SDS011;61064;51.654;5.476;2023-06-10T07:16:30;12.13;;;5.30;;
72920;SDS011;61064;51.654;5.476;2023-06-10T07:18:55;10.43;;;5.07;;
72920;SDS011;61064;51.654;5.476;2023-06-10T07:21:20;10.53;;;5.13;;
72920;SDS011;61064;51.654;5.476;2023-06-10T07:23:47;9.88;;;5.20;;
72920;SDS011;61064;51.654;5.476;2023-06-10T07:26:13;10.43;;;5.00;;
72920;SDS011;61064;51.654;5.476;2023-06-10T07:28:43;10.13;;;5.05;;
72920;SDS011;61064;51.654;5.476;2023-06-10T07:31:08;10.27;;;4.85;;
72920;SDS011;61064;51.654;5.476;2023-06-10T07:33:34;10.63;;;4.53;;
72920;SDS011;61064;51.654;5.476;2023-06-10T07:35:59;9.82;;;4.70;;
72920;SDS011;61064;51.654;5.476;2023-06-10T07:38:28;10.70;;;4.70;;
72920;SDS011;61064;51.654;5.476;2023-06-10T07:40:53;9.05;;;4.50;;
72920;SDS011;61064;51.654;5.476;2023-06-10T07:43:19;10.17;;;4.70;;
72920;SDS011;61064;51.654;5.476;2023-06-10T07:45:44;10.47;;;4.90;;
72920;SDS011;61064;51.654;5.476;2023-06-10T07:48:09;13.53;;;5.13;;
72920;SDS011;61064;51.654;5.476;2023-06-10T07:50:35;14.73;;;4.88;;
72920;SDS011;61064;51.654;5.476;2023-06-10T07:53:01;9.57;;;4.90;;
72920;SDS011;61064;51.654;5.476;2023-06-10T07:55:26;13.20;;;4.95;;
72920;SDS011;61064;51.654;5.476;2023-06-10T07:57:52;10.37;;;5.00;;
72920;SDS011;61064;51.654;5.476;2023-06-10T08:00:19;11.98;;;4.78;;
72920;SDS011;61064;51.654;5.476;2023-06-10T08:02:45;13.55;;;4.78;;
72920;SDS011;61064;51.654;5.476;2023-06-10T08:05:10;10.23;;;4.60;;
72920;SDS011;61064;51.654;5.476;2023-06-10T08:07:36;12.20;;;4.77;;
72920;SDS011;61064;51.654;5.476;2023-06-10T08:10:02;10.00;;;4.70;;
72920;SDS011;61064;51.654;5.476;2023-06-10T08:12:29;9.70;;;4.57;;
72920;SDS011;61064;51.654;5.476;2023-06-10T08:14:54;8.63;;;4.55;;
72920;SDS011;61064;51.654;5.476;2023-06-10T08:17:20;10.20;;;4.70;;
72920;SDS011;61064;51.654;5.476;2023-06-10T08:19:46;10.47;;;4.63;;
72920;SDS011;61064;51.654;5.476;2023-06-10T08:22:11;8.50;;;4.40;;
72920;SDS011;61064;51.654;5.476;2023-06-10T08:24:37;8.40;;;4.10;;
72920;SDS011;61064;51.654;5.476;2023-06-10T08:27:02;8.57;;;4.40;;
72920;SDS011;61064;51.654;5.476;2023-06-10T08:29:28;10.03;;;4.73;;
72920;SDS011;61064;51.654;5.476;2023-06-10T08:31:54;9.15;;;4.72;;
72920;SDS011;61064;51.654;5.476;2023-06-10T08:34:20;12.23;;;4.65;;
72920;SDS011;61064;51.654;5.476;2023-06-10T08:36:45;9.30;;;4.63;;
72920;SDS011;61064;51.654;5.476;2023-06-10T08:39:11;9.70;;;4.50;;
72920;SDS011;61064;51.654;5.476;2023-06-10T08:41:37;10.93;;;4.57;;
72920;SDS011;61064;51.654;5.476;2023-06-10T08:44:16;8.38;;;4.50;;
72920;SDS011;61064;51.654;5.476;2023-06-10T08:46:47;11.20;;;4.38;;
72920;SDS011;61064;51.654;5.476;2023-06-10T08:49:14;11.55;;;4.00;;
72920;SDS011;61064;51.654;5.476;2023-06-10T08:51:46;10.65;;;4.80;;
72920;SDS011;61064;51.654;5.476;2023-06-10T08:54:20;13.13;;;6.60;;
72920;SDS011;61064;51.654;5.476;2023-06-10T08:56:50;9.25;;;4.50;;
72920;SDS011;61064;51.654;5.476;2023-06-10T08:59:17;10.55;;;4.57;;
72920;SDS011;61064;51.654;5.476;2023-06-10T09:01:44;12.70;;;4.53;;
72920;SDS011;61064;51.654;5.476;2023-06-10T09:04:09;9.75;;;4.55;;
72920;SDS011;61064;51.654;5.476;2023-06-10T09:06:35;9.57;;;4.32;;
72920;SDS011;61064;51.654;5.476;2023-06-10T09:09:01;11.07;;;4.60;;
72920;SDS011;61064;51.654;5.476;2023-06-10T09:11:27;12.17;;;4.63;;
72920;SDS011;61064;51.654;5.476;2023-06-10T09:13:53;11.32;;;4.57;;
72920;SDS011;61064;51.654;5.476;2023-06-10T09:16:19;8.60;;;4.63;;
72920;SDS011;61064;51.654;5.476;2023-06-10T09:18:44;11.93;;;4.93;;
72920;SDS011;61064;51.654;5.476;2023-06-10T09:21:10;11.23;;;4.90;;
72920;SDS011;61064;51.654;5.476;2023-06-10T09:23:36;11.65;;;4.50;;
72920;SDS011;61064;51.654;5.476;2023-06-10T09:26:02;13.63;;;4.73;;
72920;SDS011;61064;51.654;5.476;2023-06-10T09:28:33;8.68;;;4.38;;
72920;SDS011;61064;51.654;5.476;2023-06-10T09:31:03;9.13;;;4.50;;
72920;SDS011;61064;51.654;5.476;2023-06-10T09:33:32;9.45;;;4.80;;
72920;SDS011;61064;51.654;5.476;2023-06-10T09:35:59;10.82;;;4.78;;
72920;SDS011;61064;51.654;5.476;2023-06-10T09:38:30;11.32;;;4.90;;
72920;SDS011;61064;51.654;5.476;2023-06-10T09:40:57;8.43;;;4.30;;
72920;SDS011;61064;51.654;5.476;2023-06-10T09:43:22;8.88;;;4.45;;
72920;SDS011;61064;51.654;5.476;2023-06-10T09:45:48;9.40;;;4.87;;
72920;SDS011;61064;51.654;5.476;2023-06-10T09:48:14;8.20;;;4.80;;
72920;SDS011;61064;51.654;5.476;2023-06-10T09:50:43;11.67;;;5.13;;
72920;SDS011;61064;51.654;5.476;2023-06-10T09:53:10;10.27;;;4.93;;
72920;SDS011;61064;51.654;5.476;2023-06-10T09:55:39;10.75;;;4.70;;
72920;SDS011;61064;51.654;5.476;2023-06-10T09:58:05;10.35;;;4.85;;
72920;SDS011;61064;51.654;5.476;2023-06-10T10:00:34;10.57;;;4.97;;
72920;SDS011;61064;51.654;5.476;2023-06-10T10:03:00;12.80;;;4.85;;
72920;SDS011;61064;51.654;5.476;2023-06-10T10:05:26;9.60;;;4.90;;
72920;SDS011;61064;51.654;5.476;2023-06-10T10:07:52;9.47;;;5.30;;
72920;SDS011;61064;51.654;5.476;2023-06-10T10:10:18;9.88;;;5.18;;
72920;SDS011;61064;51.654;5.476;2023-06-10T10:12:46;13.00;;;5.47;;
72920;SDS011;61064;51.654;5.476;2023-06-10T10:15:13;10.23;;;5.13;;
72920;SDS011;61064;51.654;5.476;2023-06-10T10:17:44;10.05;;;5.40;;
72920;SDS011;61064;51.654;5.476;2023-06-10T10:20:14;10.90;;;5.00;;
72920;SDS011;61064;51.654;5.476;2023-06-10T10:22:44;10.82;;;5.13;;
72920;SDS011;61064;51.654;5.476;2023-06-10T10:25:23;9.90;;;5.35;;
72920;SDS011;61064;51.654;5.476;2023-06-10T10:27:54;10.13;;;4.80;;
72920;SDS011;61064;51.654;5.476;2023-06-10T10:30:24;9.18;;;5.00;;
72920;SDS011;61064;51.654;5.476;2023-06-10T10:32:57;9.65;;;5.22;;
72920;SDS011;61064;51.654;5.476;2023-06-10T10:35:26;9.70;;;5.10;;
72920;SDS011;61064;51.654;5.476;2023-06-10T10:37:52;9.80;;;5.13;;
72920;SDS011;61064;51.654;5.476;2023-06-10T10:40:24;9.77;;;5.25;;
72920;SDS011;61064;51.654;5.476;2023-06-10T10:42:55;9.65;;;4.97;;
72920;SDS011;61064;51.654;5.476;2023-06-10T10:45:21;10.00;;;5.20;;
72920;SDS011;61064;51.654;5.476;2023-06-10T10:47:49;9.33;;;5.30;;
72920;SDS011;61064;51.654;5.476;2023-06-10T10:50:19;12.02;;;5.35;;
72920;SDS011;61064;51.654;5.476;2023-06-10T10:55:20;9.23;;;5.20;;
72920;SDS011;61064;51.654;5.476;2023-06-10T10:58:00;11.50;;;5.50;;
72920;SDS011;61064;51.654;5.476;2023-06-10T11:00:43;11.47;;;5.00;;
72920;SDS011;61064;51.654;5.476;2023-06-10T11:03:16;9.93;;;5.00;;
72920;SDS011;61064;51.654;5.476;2023-06-10T11:05:45;9.05;;;4.90;;
72920;SDS011;61064;51.654;5.476;2023-06-10T11:08:14;9.80;;;5.38;;
72920;SDS011;61064;51.654;5.476;2023-06-10T11:10:57;7.75;;;4.90;;
72920;SDS011;61064;51.654;5.476;2023-06-10T11:13:25;10.47;;;5.30;;
72920;SDS011;61064;51.654;5.476;2023-06-10T11:15:51;9.80;;;5.35;;
72920;SDS011;61064;51.654;5.476;2023-06-10T11:34:13;10.48;;;5.78;;
72920;SDS011;61064;51.654;5.476;2023-06-10T11:36:45;12.80;;;5.40;;
72920;SDS011;61064;51.654;5.476;2023-06-10T11:39:11;9.47;;;5.07;;
72920;SDS011;61064;51.654;5.476;2023-06-10T11:41:39;11.07;;;5.03;;
72920;SDS011;61064;51.654;5.476;2023-06-10T11:44:14;8.85;;;5.43;;
72920;SDS011;61064;51.654;5.476;2023-06-10T11:46:39;11.10;;;5.18;;
72920;SDS011;61064;51.654;5.476;2023-06-10T11:49:07;9.80;;;5.07;;
72920;SDS011;61064;51.654;5.476;2023-06-10T11:51:34;9.15;;;5.20;;
72920;SDS011;61064;51.654;5.476;2023-06-10T11:54:02;10.98;;;4.93;;
72920;SDS011;61064;51.654;5.476;2023-06-10T11:56:29;10.97;;;5.03;;
72920;SDS011;61064;51.654;5.476;2023-06-10T11:58:56;9.23;;;5.18;;
72920;SDS011;61064;51.654;5.476;2023-06-10T12:01:35;10.10;;;5.07;;
72920;SDS011;61064;51.654;5.476;2023-06-10T12:04:03;9.00;;;5.07;;
72920;SDS011;61064;51.654;5.476;2023-06-10T12:06:40;11.45;;;5.07;;
72920;SDS011;61064;51.654;5.476;2023-06-10T12:09:14;9.13;;;4.87;;
72920;SDS011;61064;51.654;5.476;2023-06-10T12:11:40;9.10;;;5.35;;
72920;SDS011;61064;51.654;5.476;2023-06-10T12:14:08;10.32;;;5.28;;
72920;SDS011;61064;51.654;5.476;2023-06-10T12:16:33;11.77;;;5.00;;
72920;SDS011;61064;51.654;5.476;2023-06-10T12:19:02;8.50;;;4.70;;
72920;SDS011;61064;51.654;5.476;2023-06-10T12:21:29;10.40;;;5.55;;
72920;SDS011;61064;51.654;5.476;2023-06-10T12:24:02;10.35;;;5.47;;
72920;SDS011;61064;51.654;5.476;2023-06-10T12:26:38;9.30;;;5.20;;
72920;SDS011;61064;51.654;5.476;2023-06-10T12:32:00;7.68;;;5.18;;
72920;SDS011;61064;51.654;5.476;2023-06-10T12:34:32;8.95;;;5.10;;
72920;SDS011;61064;51.654;5.476;2023-06-10T12:37:02;9.45;;;5.28;;
72920;SDS011;61064;51.654;5.476;2023-06-10T12:39:33;9.25;;;5.05;;
72920;SDS011;61064;51.654;5.476;2023-06-10T12:41:59;9.13;;;5.40;;
72920;SDS011;61064;51.654;5.476;2023-06-10T12:44:32;9.73;;;5.20;;
72920;SDS011;61064;51.654;5.476;2023-06-10T12:47:07;9.90;;;5.10;;
72920;SDS011;61064;51.654;5.476;2023-06-10T12:49:37;8.05;;;4.95;;
72920;SDS011;61064;51.654;5.476;2023-06-10T12:52:03;11.13;;;4.90;;
72920;SDS011;61064;51.654;5.476;2023-06-10T12:54:30;9.83;;;5.03;;
72920;SDS011;61064;51.654;5.476;2023-06-10T12:56:55;9.93;;;5.20;;
72920;SDS011;61064;51.654;5.476;2023-06-10T12:59:20;8.63;;;5.17;;
72920;SDS011;61064;51.654;5.476;2023-06-10T13:01:52;10.80;;;4.90;;
72920;SDS011;61064;51.654;5.476;2023-06-10T13:04:18;8.23;;;4.65;;
72920;SDS011;61064;51.654;5.476;2023-06-10T13:06:48;9.50;;;5.13;;
72920;SDS011;61064;51.654;5.476;2023-06-10T13:09:14;8.80;;;5.00;;
72920;SDS011;61064;51.654;5.476;2023-06-10T13:11:40;8.85;;;5.18;;
72920;SDS011;61064;51.654;5.476;2023-06-10T13:14:10;9.00;;;5.07;;
72920;SDS011;61064;51.654;5.476;2023-06-10T13:16:35;9.23;;;5.20;;
72920;SDS011;61064;51.654;5.476;2023-06-10T13:19:04;8.07;;;4.75;;
72920;SDS011;61064;51.654;5.476;2023-06-10T13:21:30;8.30;;;4.87;;
72920;SDS011;61064;51.654;5.476;2023-06-10T13:23:57;9.65;;;5.05;;
72920;SDS011;61064;51.654;5.476;2023-06-10T13:26:22;9.80;;;5.00;;
72920;SDS011;61064;51.654;5.476;2023-06-10T13:28:48;7.80;;;5.07;;
72920;SDS011;61064;51.654;5.476;2023-06-10T13:31:13;11.07;;;4.70;;
72920;SDS011;61064;51.654;5.476;2023-06-10T13:33:41;8.15;;;4.80;;
72920;SDS011;61064;51.654;5.476;2023-06-10T13:36:08;9.15;;;4.53;;
72920;SDS011;61064;51.654;5.476;2023-06-10T13:38:34;12.17;;;4.97;;
72920;SDS011;61064;51.654;5.476;2023-06-10T13:40:59;8.10;;;4.93;;
72920;SDS011;61064;51.654;5.476;2023-06-10T13:43:24;8.70;;;5.10;;
72920;SDS011;61064;51.654;5.476;2023-06-10T13:45:50;9.90;;;5.17;;
72920;SDS011;61064;51.654;5.476;2023-06-10T13:48:15;9.75;;;4.95;;
72920;SDS011;61064;51.654;5.476;2023-06-10T13:50:40;9.07;;;5.20;;
72920;SDS011;61064;51.654;5.476;2023-06-10T13:53:10;7.85;;;4.85;;
72920;SDS011;61064;51.654;5.476;2023-06-10T13:55:35;9.50;;;4.77;;
72920;SDS011;61064;51.654;5.476;2023-06-10T13:58:01;8.60;;;4.80;;
72920;SDS011;61064;51.654;5.476;2023-06-10T14:00:26;9.83;;;5.10;;
72920;SDS011;61064;51.654;5.476;2023-06-10T14:02:52;10.40;;;5.05;;
72920;SDS011;61064;51.654;5.476;2023-06-10T14:05:17;8.97;;;4.70;;
72920;SDS011;61064;51.654;5.476;2023-06-10T14:07:43;8.87;;;4.57;;
72920;SDS011;61064;51.654;5.476;2023-06-10T14:10:08;8.07;;;5.23;;
72920;SDS011;61064;51.654;5.476;2023-06-10T14:12:34;7.40;;;4.80;;
72920;SDS011;61064;51.654;5.476;2023-06-10T14:15:00;8.57;;;5.10;;
72920;SDS011;61064;51.654;5.476;2023-06-10T14:17:25;8.85;;;5.15;;
72920;SDS011;61064;51.654;5.476;2023-06-10T14:19:51;10.20;;;4.80;;
72920;SDS011;61064;51.654;5.476;2023-06-10T14:22:16;8.47;;;4.90;;
72920;SDS011;61064;51.654;5.476;2023-06-10T14:24:41;8.70;;;4.70;;
72920;SDS011;61064;51.654;5.476;2023-06-10T14:27:07;9.00;;;4.70;;
72920;SDS011;61064;51.654;5.476;2023-06-10T14:29:32;8.32;;;4.80;;
72920;SDS011;61064;51.654;5.476;2023-06-10T14:31:58;7.93;;;4.30;;
72920;SDS011;61064;51.654;5.476;2023-06-10T14:34:24;8.48;;;4.63;;
72920;SDS011;61064;51.654;5.476;2023-06-10T14:36:53;8.70;;;4.53;;
72920;SDS011;61064;51.654;5.476;2023-06-10T14:39:19;8.70;;;4.95;;
72920;SDS011;61064;51.654;5.476;2023-06-10T14:41:45;8.70;;;4.80;;
72920;SDS011;61064;51.654;5.476;2023-06-10T14:44:10;11.53;;;5.10;;
72920;SDS011;61064;51.654;5.476;2023-06-10T14:46:35;8.63;;;4.60;;
72920;SDS011;61064;51.654;5.476;2023-06-10T14:49:00;9.80;;;5.00;;
72920;SDS011;61064;51.654;5.476;2023-06-10T14:51:27;9.43;;;4.90;;
72920;SDS011;61064;51.654;5.476;2023-06-10T14:53:53;8.40;;;4.70;;
72920;SDS011;61064;51.654;5.476;2023-06-10T14:56:18;9.20;;;4.83;;
72920;SDS011;61064;51.654;5.476;2023-06-10T14:58:43;9.53;;;4.77;;
72920;SDS011;61064;51.654;5.476;2023-06-10T15:01:09;9.13;;;5.63;;